North Hollywood, CA

4:51 PM PST on December 18, 2014 (GMT -0800)
Santa Monica Municipal | Change Station
CLOSE
Current Station
Airport
Location: Santa Monica,
Elevation: 174 ft
Nearby Weather Stations

Elev 174 ft 34.02 °N, 118.45 °W | Updated 1 hour ago

Partly Cloudy
Partly Cloudy
61 °F
Feels Like 61 °F
N
6
Wind Variable Wind from SW

Today
High -- | Low -- °F
--% Chance of Precip.
Yesterday
High -- | Low -- °F
Precip. -- in
6:53 AM 4:46 PM
Waning Crescent, 11% visible
Pressure 30.15 in
Visibility 10.0 miles
Clouds Mostly Cloudy 5500 ft
Dew Point 47 °F
Humidity 60%
Rainfall 0.00 in
Snow Depth Not available.
UV 0 out of 12
Pollen 3.10 out of 12
Air Quality Not available.
Flu Activity Not available.
METAR KSMO 182351Z 22005KT 10SM BKN055 16/08 A3015 RMK AO2 SLP209 60000 T01610083 10167 20139 55002

More Conditions Fewer Conditions

Pressure 30.15 in
Visibility 10.0 miles
Clouds Mostly Cloudy 5500 ft
Dew Point 47 °F
Humidity 60%
Rainfall 0.00 in
Snow Depth Not available.
UV 0 out of 12
Pollen 3.10 out of 12
Air Quality Not available.
Flu Activity Not available.
METAR KSMO 182351Z 22005KT 10SM BKN055 16/08 A3015 RMK AO2 SLP209 60000 T01610083 10167 20139 55002

More Conditions Fewer Conditions

10-Day Weather Forecast

Almanac

Astronomy

Dec. 18, 2014 Rise Set
Actual Time
Civil Twilight
Nautical Twilight
Astronomical Twilight
Moon
Length of Visible Light
Length of Day
Tomorrow will be .
, % of the Moon is Illuminated

Today's Extremes

State Highs State Lows

Community

WunderPhotos

Upload Photos

1,779,016 photos uploaded!

WunderBlogs® & News

Nearby

Air Quality

  Air Quality AQ Index Pollutant
Not available.

Snow Depth

Station Depth Elevation

Earthquake Activity

City Distance Mag. Time & Date
Minimum magnitude displayed is 2.5.

Coastal Water Temperatures

Place Temperature

Nearby Weather Stations